createdAt,value
2023-11-27T00:00:50.934Z,14.27
2023-11-27T00:03:17.979Z,8.82
2023-11-27T00:05:44.952Z,18.50
2023-11-27T00:08:15.029Z,16.63
2023-11-27T00:10:43.128Z,14.23
2023-11-27T00:13:10.135Z,16.75
2023-11-27T00:15:37.493Z,13.07
2023-11-27T00:18:04.713Z,15.52
2023-11-27T00:20:31.789Z,13.00
2023-11-27T00:22:58.821Z,13.77
2023-11-27T00:25:27.146Z,12.32
2023-11-27T00:27:54.187Z,9.82
2023-11-27T00:30:21.262Z,14.07
2023-11-27T00:32:48.272Z,10.55
2023-11-27T00:35:16.240Z,13.57
2023-11-27T00:37:43.454Z,14.48
2023-11-27T00:40:10.962Z,15.88
2023-11-27T00:42:37.963Z,12.15
2023-11-27T00:45:07.490Z,12.63
2023-11-27T00:47:36.547Z,11.45
2023-11-27T00:50:05.209Z,11.90
2023-11-27T00:52:33.695Z,13.63
2023-11-27T00:55:00.654Z,11.35
2023-11-27T00:57:27.703Z,11.13
2023-11-27T00:59:54.648Z,11.23
2023-11-27T01:02:22.133Z,10.95
2023-11-27T01:04:49.417Z,8.32
2023-11-27T01:07:16.462Z,13.52
2023-11-27T01:09:43.558Z,16.20
2023-11-27T01:12:10.531Z,13.45
2023-11-27T01:14:38.219Z,11.85
2023-11-27T01:17:05.553Z,12.80
2023-11-27T01:19:33.145Z,19.65
2023-11-27T01:22:00.292Z,14.75
2023-11-27T01:24:27.317Z,11.95
2023-11-27T01:26:54.299Z,13.77
2023-11-27T01:29:23.182Z,13.25
2023-11-27T01:31:51.663Z,14.98
2023-11-27T01:34:19.837Z,15.77
2023-11-27T01:36:47.241Z,13.50
2023-11-27T01:39:15.416Z,10.15
2023-11-27T01:41:43.099Z,10.32
2023-11-27T01:44:10.223Z,11.73
2023-11-27T01:46:45.217Z,16.65
2023-11-27T01:49:13.325Z,16.13
2023-11-27T01:51:43.811Z,16.23
2023-11-27T01:54:11.908Z,12.90
2023-11-27T01:56:43.649Z,13.23
2023-11-27T01:59:12.490Z,13.93
2023-11-27T02:01:40.221Z,13.52
2023-11-27T02:04:07.371Z,10.82
2023-11-27T02:06:34.912Z,12.32
2023-11-27T02:09:03.472Z,12.82
2023-11-27T02:11:32.827Z,12.73
2023-11-27T02:14:01.439Z,15.77
2023-11-27T02:16:28.603Z,16.95
2023-11-27T02:18:56.967Z,14.00
2023-11-27T02:21:24.327Z,12.82
2023-11-27T02:23:51.913Z,8.45
2023-11-27T02:26:21.000Z,10.52
2023-11-27T02:28:49.929Z,12.18
2023-11-27T02:31:19.220Z,14.18
2023-11-27T02:33:47.360Z,10.90
2023-11-27T02:36:14.440Z,13.27
2023-11-27T02:38:41.428Z,9.30
2023-11-27T02:41:10.873Z,9.02
2023-11-27T02:43:37.793Z,15.75
2023-11-27T02:46:05.231Z,8.38
2023-11-27T02:48:32.523Z,10.73
2023-11-27T02:50:59.754Z,11.40
2023-11-27T02:53:29.556Z,9.48
2023-11-27T02:55:56.487Z,14.18
2023-11-27T02:58:25.381Z,9.05
2023-11-27T03:00:52.855Z,13.63
2023-11-27T03:03:22.222Z,8.75
2023-11-27T03:05:49.230Z,13.38
2023-11-27T03:08:17.298Z,9.05
2023-11-27T03:10:44.355Z,11.68
2023-11-27T03:13:13.457Z,9.40
2023-11-27T03:15:40.495Z,15.63
2023-11-27T03:18:07.799Z,12.52
2023-11-27T03:20:36.300Z,6.47
2023-11-27T03:23:04.564Z,9.13
2023-11-27T03:25:31.577Z,10.65
2023-11-27T03:28:01.944Z,8.80
2023-11-27T03:30:30.300Z,9.65
2023-11-27T03:32:58.961Z,8.02
2023-11-27T03:35:25.908Z,9.95
2023-11-27T03:38:19.737Z,7.78
2023-11-27T03:40:48.044Z,13.00
2023-11-27T03:43:16.010Z,6.93
2023-11-27T03:45:43.041Z,7.18
2023-11-27T03:48:11.292Z,7.65
2023-11-27T03:50:38.234Z,11.38
2023-11-27T03:53:05.384Z,10.68
2023-11-27T03:55:32.507Z,10.40
2023-11-27T03:57:59.523Z,6.53
2023-11-27T04:00:26.942Z,7.90
2023-11-27T04:02:54.015Z,10.05
2023-11-27T04:05:21.133Z,4.88
2023-11-27T04:07:48.978Z,13.52
2023-11-27T04:10:17.805Z,9.85
2023-11-27T04:12:46.615Z,11.85
2023-11-27T04:15:15.591Z,10.10
2023-11-27T04:17:42.664Z,12.57
2023-11-27T04:20:13.162Z,9.07
2023-11-27T04:22:40.268Z,10.23
2023-11-27T04:25:07.724Z,9.45
2023-11-27T04:27:35.555Z,8.32
2023-11-27T04:30:03.865Z,9.30
2023-11-27T04:32:31.885Z,9.38
2023-11-27T04:34:59.088Z,8.02
2023-11-27T04:37:27.536Z,7.50
2023-11-27T04:39:55.779Z,7.80
2023-11-27T04:42:28.148Z,9.45
2023-11-27T04:44:58.393Z,11.40
2023-11-27T04:47:25.645Z,9.27
2023-11-27T04:49:53.801Z,9.98
2023-11-27T04:52:23.300Z,8.32
2023-11-27T04:54:50.986Z,10.63
2023-11-27T04:57:22.482Z,9.35
2023-11-27T04:59:50.134Z,9.20
2023-11-27T05:02:17.237Z,12.55
2023-11-27T05:04:46.593Z,5.70
2023-11-27T05:07:13.669Z,9.95
2023-11-27T05:09:41.158Z,8.07
2023-11-27T05:12:11.301Z,7.22
2023-11-27T05:14:40.137Z,6.07
2023-11-27T05:17:07.217Z,6.22
2023-11-27T05:19:36.945Z,8.60
2023-11-27T05:22:04.745Z,7.40
2023-11-27T05:24:31.776Z,5.68
2023-11-27T05:27:02.638Z,7.25
2023-11-27T05:29:30.836Z,7.07
2023-11-27T05:31:59.075Z,6.15
2023-11-27T05:34:26.118Z,5.57
2023-11-27T05:36:53.095Z,7.03
2023-11-27T05:39:22.890Z,8.00
2023-11-27T05:41:50.902Z,9.65
2023-11-27T05:44:19.231Z,5.60
2023-11-27T05:46:46.347Z,5.40
2023-11-27T05:49:13.491Z,4.40
2023-11-27T05:51:41.243Z,4.10
2023-11-27T05:54:10.402Z,5.85
2023-11-27T05:56:38.061Z,4.30
2023-11-27T05:59:05.679Z,6.53
2023-11-27T06:01:32.806Z,8.70
2023-11-27T06:03:59.904Z,6.90
2023-11-27T06:06:27.412Z,4.72
2023-11-27T06:08:54.643Z,3.85
2023-11-27T06:11:21.816Z,6.40
2023-11-27T06:13:48.734Z,5.50
2023-11-27T06:16:16.860Z,3.55
2023-11-27T06:18:44.235Z,4.63
2023-11-27T06:21:12.593Z,6.93
2023-11-27T06:23:43.412Z,3.38
2023-11-27T06:26:14.815Z,4.63
2023-11-27T06:28:43.116Z,3.90
2023-11-27T06:31:10.379Z,4.22
2023-11-27T06:33:38.701Z,3.78
2023-11-27T06:36:06.285Z,7.68
2023-11-27T06:38:35.558Z,3.95
2023-11-27T06:41:02.582Z,4.63
2023-11-27T06:43:32.551Z,3.53
2023-11-27T06:45:59.726Z,3.17
2023-11-27T06:48:35.421Z,4.97
2023-11-27T06:51:02.537Z,4.30
2023-11-27T06:53:29.579Z,3.58
2023-11-27T06:55:58.126Z,4.30
2023-11-27T06:58:25.779Z,5.45
2023-11-27T07:00:52.763Z,6.90
2023-11-27T07:03:20.804Z,4.10
2023-11-27T07:05:53.116Z,3.05
2023-11-27T07:08:20.831Z,4.22
2023-11-27T07:10:54.305Z,3.47
2023-11-27T07:13:25.383Z,4.45
2023-11-27T07:15:52.911Z,4.55
2023-11-27T07:18:22.174Z,4.55
2023-11-27T07:20:51.532Z,6.50
2023-11-27T07:23:18.531Z,3.53
2023-11-27T07:25:45.598Z,4.80
2023-11-27T07:28:13.131Z,7.15
2023-11-27T07:30:41.587Z,3.85
2023-11-27T07:33:12.249Z,3.33
2023-11-27T07:35:42.920Z,5.43
2023-11-27T07:38:09.949Z,5.88
2023-11-27T07:40:38.049Z,5.57
2023-11-27T07:43:12.176Z,2.25
2023-11-27T07:45:42.220Z,2.90
2023-11-27T07:48:12.138Z,3.22
2023-11-27T07:50:39.150Z,3.60
2023-11-27T07:53:06.119Z,3.22
2023-11-27T07:55:33.554Z,3.85
2023-11-27T07:58:03.683Z,3.67
2023-11-27T08:00:34.144Z,4.05
2023-11-27T08:03:02.193Z,4.53
2023-11-27T08:05:30.870Z,5.53
2023-11-27T08:07:58.157Z,6.55
2023-11-27T08:10:25.366Z,5.22
2023-11-27T08:12:57.549Z,6.63
2023-11-27T08:15:27.292Z,5.28
2023-11-27T08:17:56.559Z,5.35
2023-11-27T08:20:30.214Z,3.17
2023-11-27T08:22:59.432Z,4.53
2023-11-27T08:25:28.196Z,3.67
2023-11-27T08:27:57.127Z,6.50
2023-11-27T08:30:34.543Z,4.63
2023-11-27T08:33:04.621Z,4.07
2023-11-27T08:35:35.450Z,4.63
2023-11-27T08:38:03.530Z,6.00
2023-11-27T08:40:32.619Z,4.65
2023-11-27T08:43:01.721Z,3.63
2023-11-27T08:45:30.537Z,3.45
2023-11-27T08:47:57.867Z,3.33
2023-11-27T08:50:28.492Z,5.38
2023-11-27T08:53:00.782Z,3.47
2023-11-27T08:55:31.620Z,4.97
2023-11-27T08:58:02.666Z,6.07
2023-11-27T09:00:30.247Z,2.85
2023-11-27T09:03:00.500Z,2.72
2023-11-27T09:05:33.744Z,4.00
2023-11-27T09:08:08.103Z,2.88
2023-11-27T09:10:37.350Z,3.35
2023-11-27T09:13:07.351Z,2.65
2023-11-27T09:15:35.226Z,2.25
2023-11-27T09:18:02.574Z,4.30
2023-11-27T09:20:29.827Z,3.38
2023-11-27T09:22:59.120Z,2.90
2023-11-27T09:25:26.332Z,2.88
2023-11-27T09:27:53.362Z,2.85
2023-11-27T09:30:21.982Z,3.83
2023-11-27T09:32:49.557Z,3.50
2023-11-27T09:35:17.054Z,3.22
2023-11-27T09:37:44.774Z,3.28
2023-11-27T09:40:16.841Z,3.08
2023-11-27T09:42:47.533Z,6.00
2023-11-27T09:45:18.492Z,2.25
2023-11-27T09:47:50.164Z,3.60
2023-11-27T09:50:20.659Z,3.00
2023-11-27T09:53:10.770Z,4.53
2023-11-27T09:55:41.613Z,1.98
2023-11-27T09:58:12.013Z,2.55
2023-11-27T10:00:43.025Z,2.88
2023-11-27T10:03:22.771Z,5.53
2023-11-27T10:05:51.018Z,4.57
2023-11-27T10:08:18.220Z,2.35
2023-11-27T10:10:45.621Z,4.03
2023-11-27T10:13:32.660Z,2.33
2023-11-27T10:16:10.630Z,3.03
2023-11-27T10:18:37.805Z,2.15
2023-11-27T10:21:15.625Z,3.03
2023-11-27T10:23:42.911Z,2.28
2023-11-27T10:26:09.885Z,2.08
2023-11-27T10:28:47.462Z,2.53
2023-11-27T10:31:15.435Z,2.58
2023-11-27T10:33:42.928Z,2.60
2023-11-27T10:36:11.125Z,1.60
2023-11-27T10:38:38.350Z,1.92
2023-11-27T10:41:07.072Z,1.27
2023-11-27T10:43:38.555Z,1.67
2023-11-27T10:46:15.999Z,1.55
2023-11-27T10:48:46.470Z,1.95
2023-11-27T10:51:16.447Z,1.10
2023-11-27T10:53:47.512Z,1.75
2023-11-27T10:56:16.475Z,1.37
2023-11-27T10:58:46.254Z,3.17
2023-11-27T11:01:17.351Z,2.05
2023-11-27T11:03:49.151Z,1.75
2023-11-27T11:06:21.330Z,2.65
2023-11-27T11:08:52.688Z,1.67
2023-11-27T11:11:24.193Z,4.10
2023-11-27T11:13:52.600Z,1.60
2023-11-27T11:16:37.789Z,1.58
2023-11-27T11:19:17.963Z,1.25
2023-11-27T11:22:26.079Z,0.90
2023-11-27T11:25:14.627Z,3.15
2023-11-27T11:27:57.551Z,1.42
2023-11-27T11:30:26.471Z,1.05
2023-11-27T11:32:53.632Z,1.35
2023-11-27T11:35:21.691Z,0.80
2023-11-27T11:37:50.755Z,1.35
2023-11-27T11:40:19.440Z,1.70
2023-11-27T11:42:49.027Z,2.22
2023-11-27T11:45:26.766Z,1.58
2023-11-27T11:47:58.566Z,2.17
2023-11-27T11:50:32.814Z,2.25
2023-11-27T11:53:15.750Z,0.80
2023-11-27T11:55:44.386Z,2.85
2023-11-27T11:58:23.607Z,1.23
2023-11-27T12:00:55.193Z,1.75
2023-11-27T12:03:24.715Z,0.95
2023-11-27T12:05:56.002Z,1.45
2023-11-27T12:08:32.612Z,1.58
2023-11-27T12:11:02.082Z,0.80
2023-11-27T12:13:42.074Z,1.48
2023-11-27T12:16:13.743Z,1.15
2023-11-27T12:18:51.055Z,0.93
2023-11-27T12:21:25.943Z,1.48
2023-11-27T12:23:55.489Z,2.42
2023-11-27T12:26:25.999Z,1.33
2023-11-27T12:28:56.539Z,1.33
2023-11-27T12:31:29.708Z,0.95
2023-11-27T12:34:04.379Z,1.27
2023-11-27T12:36:31.946Z,1.73
2023-11-27T12:39:02.471Z,1.60
2023-11-27T12:41:34.870Z,1.00
2023-11-27T12:44:23.775Z,1.15
2023-11-27T12:46:57.356Z,1.95
2023-11-27T12:49:29.924Z,4.80
2023-11-27T12:52:07.853Z,2.45
2023-11-27T12:55:01.299Z,2.60
2023-11-27T12:57:34.464Z,1.17
2023-11-27T13:00:01.450Z,1.70
2023-11-27T13:02:30.687Z,3.67
2023-11-27T13:04:59.469Z,1.92
2023-11-27T13:07:27.365Z,1.20
2023-11-27T13:09:56.836Z,1.05
2023-11-27T13:12:27.211Z,0.55
2023-11-27T13:14:54.510Z,1.65
2023-11-27T13:17:22.538Z,2.15
2023-11-27T13:19:55.889Z,1.70
2023-11-27T13:22:25.014Z,0.88
2023-11-27T13:24:55.131Z,0.68
2023-11-27T13:27:25.344Z,1.05
2023-11-27T13:29:54.259Z,0.85
2023-11-27T13:32:23.138Z,0.65
2023-11-27T13:35:00.402Z,0.65
2023-11-27T13:37:36.758Z,1.10
2023-11-27T13:40:08.188Z,0.40
2023-11-27T13:42:37.505Z,0.83
2023-11-27T13:45:05.123Z,1.08
2023-11-27T13:47:34.642Z,0.82
2023-11-27T13:50:02.535Z,0.82
2023-11-27T13:52:33.025Z,1.38
2023-11-27T13:55:07.883Z,0.98
2023-11-27T13:57:34.958Z,1.00
2023-11-27T14:00:02.581Z,1.05
2023-11-27T14:02:38.740Z,1.02
2023-11-27T14:05:10.265Z,0.88
2023-11-27T14:07:42.839Z,0.60
2023-11-27T14:10:24.060Z,1.15
2023-11-27T14:13:08.088Z,0.60
2023-11-27T14:15:42.096Z,1.15
2023-11-27T14:18:22.957Z,3.08
2023-11-27T14:21:12.845Z,1.02
2023-11-27T14:23:39.971Z,1.17
2023-11-27T14:26:10.125Z,2.25
2023-11-27T14:28:49.000Z,0.90
2023-11-27T14:31:19.440Z,4.45
2023-11-27T14:33:54.927Z,3.42
2023-11-27T14:36:21.845Z,4.65
2023-11-27T14:38:49.777Z,2.72
2023-11-27T14:41:18.578Z,3.15
2023-11-27T14:43:50.251Z,2.22
2023-11-27T14:46:18.145Z,1.40
2023-11-27T14:48:45.837Z,2.95
2023-11-27T14:51:16.183Z,1.98
2023-11-27T14:53:50.175Z,2.15
2023-11-27T14:56:18.192Z,3.58
2023-11-27T14:58:45.395Z,1.67
2023-11-27T15:01:15.867Z,1.42
2023-11-27T15:03:46.378Z,1.13
2023-11-27T15:06:14.604Z,1.83
2023-11-27T15:08:41.968Z,0.80
2023-11-27T15:11:12.073Z,0.90
2023-11-27T15:13:45.341Z,1.38
2023-11-27T15:16:18.141Z,1.50
2023-11-27T15:18:47.722Z,2.05
2023-11-27T15:21:16.085Z,1.77
2023-11-27T15:23:43.972Z,1.67
2023-11-27T15:26:11.490Z,2.35
2023-11-27T15:28:38.768Z,1.80
2023-11-27T15:31:05.938Z,2.00
2023-11-27T15:33:36.249Z,1.90
2023-11-27T15:36:09.350Z,3.28
2023-11-27T15:38:39.442Z,1.30
2023-11-27T15:41:12.361Z,1.20
2023-11-27T15:43:41.422Z,4.00
2023-11-27T15:46:10.377Z,2.05
2023-11-27T15:48:37.959Z,2.15
2023-11-27T15:51:09.381Z,6.95
2023-11-27T15:53:37.252Z,1.75
2023-11-27T15:56:09.953Z,3.40
2023-11-27T15:58:37.824Z,1.48
2023-11-27T16:01:05.258Z,1.80
2023-11-27T16:03:34.257Z,1.92
2023-11-27T16:06:03.852Z,2.53
2023-11-27T16:08:31.422Z,1.23
2023-11-27T16:11:01.612Z,1.42
2023-11-27T16:13:31.962Z,1.88
2023-11-27T16:16:00.445Z,3.03
2023-11-27T16:18:39.502Z,1.45
2023-11-27T16:21:07.376Z,4.15
2023-11-27T16:23:35.148Z,1.83
2023-11-27T16:26:05.168Z,1.55
2023-11-27T16:28:32.114Z,2.38
2023-11-27T16:31:00.111Z,1.60
2023-11-27T16:33:27.061Z,2.33
2023-11-27T16:35:57.099Z,3.88
2023-11-27T16:38:24.174Z,2.15
2023-11-27T16:40:51.242Z,2.75
2023-11-27T16:43:18.332Z,4.88
2023-11-27T16:45:45.982Z,4.25
2023-11-27T16:48:13.057Z,2.13
2023-11-27T16:50:40.993Z,2.85
2023-11-27T16:53:10.057Z,2.88
2023-11-27T16:55:37.758Z,2.42
2023-11-27T16:58:08.049Z,3.83
2023-11-27T17:00:37.964Z,3.47
2023-11-27T17:03:08.653Z,3.58
2023-11-27T17:05:38.378Z,4.10
2023-11-27T17:08:11.324Z,4.57
2023-11-27T17:10:41.979Z,3.85
2023-11-27T17:13:17.838Z,3.85
2023-11-27T17:15:46.111Z,5.28
2023-11-27T17:18:14.372Z,4.07
2023-11-27T17:20:42.840Z,4.75
2023-11-27T17:23:11.574Z,5.63
2023-11-27T17:25:39.960Z,5.18
2023-11-27T17:28:13.196Z,4.40
2023-11-27T17:30:44.095Z,6.00
2023-11-27T17:33:11.542Z,7.70
2023-11-27T17:35:40.036Z,6.30
2023-11-27T17:38:07.886Z,6.88
2023-11-27T17:40:35.663Z,8.63
2023-11-27T17:43:03.493Z,8.70
2023-11-27T17:45:30.812Z,6.97
2023-11-27T17:47:57.845Z,8.75
2023-11-27T17:50:25.249Z,8.00
2023-11-27T17:52:54.454Z,8.68
2023-11-27T17:55:23.775Z,8.68
2023-11-27T17:57:52.085Z,7.97
2023-11-27T18:00:20.980Z,8.40
2023-11-27T18:02:49.592Z,8.60
2023-11-27T18:05:21.676Z,8.65
2023-11-27T18:07:48.960Z,10.27
2023-11-27T18:10:19.331Z,10.27
2023-11-27T18:12:47.902Z,11.27
2023-11-27T18:15:21.297Z,10.95
2023-11-27T18:17:51.119Z,12.15
2023-11-27T18:20:19.811Z,10.35
2023-11-27T18:22:50.547Z,12.13
2023-11-27T18:25:19.765Z,11.07
2023-11-27T18:27:51.099Z,13.38
2023-11-27T18:30:18.465Z,11.10
2023-11-27T18:32:46.226Z,14.25
2023-11-27T18:35:14.702Z,14.43
2023-11-27T18:37:42.864Z,15.38
2023-11-27T18:40:11.637Z,13.90
2023-11-27T18:42:42.371Z,15.80
2023-11-27T18:45:12.165Z,16.87
2023-11-27T18:47:42.975Z,20.77
2023-11-27T18:50:12.044Z,18.23
2023-11-27T18:52:39.380Z,17.05
2023-11-27T18:55:07.406Z,18.58
2023-11-27T18:57:36.915Z,18.20
2023-11-27T19:00:15.057Z,17.48
2023-11-27T19:02:42.937Z,19.38
2023-11-27T19:05:11.063Z,22.50
2023-11-27T19:07:38.414Z,21.95
2023-11-27T19:10:08.460Z,21.08
2023-11-27T19:12:35.473Z,21.30
2023-11-27T19:15:04.047Z,21.90
2023-11-27T19:17:31.293Z,22.50
2023-11-27T19:19:58.550Z,23.20
2023-11-27T19:22:26.085Z,25.65
2023-11-27T19:24:55.156Z,26.02
2023-11-27T19:27:22.271Z,26.63
2023-11-27T19:29:49.324Z,24.85
2023-11-27T19:32:21.792Z,24.92
2023-11-27T19:34:59.681Z,25.88
2023-11-27T19:37:27.807Z,27.60
2023-11-27T19:39:55.020Z,27.52
2023-11-27T19:42:24.435Z,24.58
2023-11-27T19:44:51.767Z,24.73
2023-11-27T19:47:18.808Z,23.73
2023-11-27T19:49:47.794Z,24.27
2023-11-27T19:52:16.487Z,22.08
2023-11-27T19:54:43.605Z,24.27
2023-11-27T19:57:10.549Z,21.73
2023-11-27T19:59:38.340Z,15.98
2023-11-27T20:02:05.784Z,20.10
2023-11-27T20:04:34.816Z,17.23
2023-11-27T20:07:01.878Z,16.17
2023-11-27T20:09:29.568Z,16.92
2023-11-27T20:11:57.710Z,18.30
2023-11-27T20:14:25.099Z,16.80
2023-11-27T20:16:52.617Z,17.33
2023-11-27T20:19:20.540Z,17.13
2023-11-27T20:21:47.785Z,17.10
2023-11-27T20:24:14.782Z,19.30
2023-11-27T20:26:41.955Z,18.13
2023-11-27T20:29:08.949Z,18.88
2023-11-27T20:31:38.008Z,18.58
2023-11-27T20:34:11.887Z,19.77
2023-11-27T20:36:39.270Z,17.90
2023-11-27T20:39:14.867Z,17.27
2023-11-27T20:41:42.978Z,16.45
2023-11-27T20:44:10.513Z,17.60
2023-11-27T20:46:37.744Z,19.83
2023-11-27T20:49:06.326Z,16.50
2023-11-27T20:51:33.825Z,15.00
2023-11-27T20:54:02.216Z,14.23
2023-11-27T20:56:29.497Z,10.73
2023-11-27T20:58:56.624Z,11.68
2023-11-27T21:01:49.096Z,6.30
2023-11-27T21:06:43.298Z,7.47
2023-11-27T21:09:15.825Z,5.70
2023-11-27T21:11:44.538Z,6.38
2023-11-27T21:14:14.077Z,4.88
2023-11-27T21:16:41.562Z,5.90
2023-11-27T21:19:09.098Z,5.82
2023-11-27T21:21:36.148Z,6.22
2023-11-27T21:24:06.821Z,5.20
2023-11-27T21:26:35.951Z,6.03
2023-11-27T21:29:03.137Z,6.20
2023-11-27T21:31:32.094Z,5.57
2023-11-27T21:34:01.333Z,6.45
2023-11-27T21:36:30.173Z,5.95
2023-11-27T21:38:57.842Z,4.90
2023-11-27T21:41:28.918Z,5.38
2023-11-27T21:43:58.168Z,4.07
2023-11-27T21:46:28.687Z,3.67
2023-11-27T21:48:56.013Z,2.92
2023-11-27T21:51:23.121Z,4.15
2023-11-27T21:53:52.408Z,3.42
2023-11-27T21:56:19.465Z,2.78
2023-11-27T21:58:49.416Z,3.08
2023-11-27T22:01:17.781Z,2.85
2023-11-27T22:03:45.432Z,3.47
2023-11-27T22:06:13.504Z,3.55
2023-11-27T22:08:42.698Z,4.53
2023-11-27T22:11:09.652Z,9.35
2023-11-27T22:13:36.774Z,7.45
2023-11-27T22:16:04.511Z,8.23
2023-11-27T22:18:34.390Z,8.38
2023-11-27T22:21:02.761Z,8.85
2023-11-27T22:23:30.697Z,7.53
2023-11-27T22:25:59.810Z,7.85
2023-11-27T22:28:27.345Z,7.40
2023-11-27T22:30:54.320Z,7.38
2023-11-27T22:33:21.302Z,8.18
2023-11-27T22:35:48.244Z,9.77
2023-11-27T22:38:17.052Z,7.60
2023-11-27T22:40:44.012Z,5.82
2023-11-27T22:43:10.904Z,5.57
2023-11-27T22:45:37.924Z,5.53
2023-11-27T22:48:06.134Z,4.85
2023-11-27T22:50:33.100Z,6.18
2023-11-27T22:53:00.358Z,5.88
2023-11-27T22:55:27.351Z,5.50
2023-11-27T22:57:54.268Z,6.00
2023-11-27T23:00:23.744Z,7.00
2023-11-27T23:02:51.611Z,6.22
2023-11-27T23:05:18.813Z,6.35
2023-11-27T23:07:45.776Z,7.45
2023-11-27T23:10:12.880Z,5.57
2023-11-27T23:12:42.686Z,5.53
2023-11-27T23:15:13.012Z,5.65
2023-11-27T23:17:41.424Z,6.75
2023-11-27T23:20:11.570Z,8.25
2023-11-27T23:22:38.695Z,7.97
2023-11-27T23:25:07.377Z,6.43
2023-11-27T23:27:34.428Z,7.70
2023-11-27T23:30:01.429Z,6.00
2023-11-27T23:32:28.440Z,5.63
2023-11-27T23:34:55.438Z,6.03
2023-11-27T23:37:23.625Z,6.53
2023-11-27T23:39:50.896Z,7.22
2023-11-27T23:42:17.891Z,6.65
2023-11-27T23:45:22.924Z,8.48
2023-11-27T23:47:49.931Z,8.75
2023-11-27T23:50:17.013Z,8.10
2023-11-27T23:52:44.122Z,8.13
2023-11-27T23:55:12.056Z,8.90
2023-11-27T23:57:39.151Z,8.63
